createdAt,value
2022-11-12T00:02:42.890Z,7.95
2022-11-12T00:05:28.427Z,7.65
2022-11-12T00:08:13.665Z,8.05
2022-11-12T00:10:58.815Z,8.02
2022-11-12T00:13:44.065Z,7.40
2022-11-12T00:16:29.396Z,7.40
2022-11-12T00:19:14.638Z,7.25
2022-11-12T00:22:00.025Z,7.57
2022-11-12T00:24:45.571Z,7.35
2022-11-12T00:27:34.325Z,6.90
2022-11-12T00:30:19.591Z,7.80
2022-11-12T00:33:05.315Z,7.63
2022-11-12T00:35:50.544Z,7.40
2022-11-12T00:38:35.976Z,7.35
2022-11-12T00:41:21.289Z,8.77
2022-11-12T00:44:06.502Z,8.60
2022-11-12T00:46:51.939Z,9.80
2022-11-12T00:49:37.043Z,8.85
2022-11-12T00:52:22.287Z,8.35
2022-11-12T00:55:07.734Z,8.50
2022-11-12T00:57:52.810Z,8.05
2022-11-12T01:00:38.211Z,8.35
2022-11-12T01:03:23.691Z,7.93
2022-11-12T01:06:15.401Z,8.02
2022-11-12T01:09:00.543Z,7.97
2022-11-12T01:11:45.867Z,8.30
2022-11-12T01:14:31.097Z,8.23
2022-11-12T01:17:16.177Z,7.97
2022-11-12T01:20:01.876Z,7.82
2022-11-12T01:22:47.305Z,7.03
2022-11-12T01:25:32.390Z,8.65
2022-11-12T01:28:17.662Z,7.32
2022-11-12T01:31:20.794Z,7.28
2022-11-12T01:34:08.809Z,7.88
2022-11-12T01:36:54.397Z,8.65
2022-11-12T01:39:39.537Z,8.38
2022-11-12T01:42:29.427Z,8.60
2022-11-12T01:45:15.873Z,8.65
2022-11-12T01:48:01.536Z,8.25
2022-11-12T01:50:46.978Z,8.00
2022-11-12T01:53:36.803Z,9.32
2022-11-12T01:56:23.774Z,8.30
2022-11-12T01:59:15.295Z,8.77
2022-11-12T02:02:00.431Z,8.32
2022-11-12T02:04:46.871Z,7.50
2022-11-12T02:07:33.088Z,7.82
2022-11-12T02:10:19.811Z,7.70
2022-11-12T02:13:24.383Z,7.55
2022-11-12T02:16:10.830Z,7.55
2022-11-12T02:18:55.912Z,8.10
2022-11-12T02:21:41.972Z,8.07
2022-11-12T02:24:27.109Z,8.60
2022-11-12T02:27:12.473Z,7.43
2022-11-12T02:29:57.953Z,8.27
2022-11-12T02:32:43.329Z,8.93
2022-11-12T02:35:28.731Z,8.10
2022-11-12T02:38:13.973Z,9.63
2022-11-12T02:40:59.280Z,8.57
2022-11-12T02:43:44.863Z,10.02
2022-11-12T02:46:30.054Z,9.38
2022-11-12T02:49:15.417Z,10.63
2022-11-12T02:52:00.667Z,10.65
2022-11-12T02:54:45.914Z,9.73
2022-11-12T02:57:31.128Z,9.55
2022-11-12T03:00:18.169Z,8.90
2022-11-12T03:03:03.382Z,8.73
2022-11-12T03:05:56.905Z,8.75
2022-11-12T03:08:41.786Z,8.50
2022-11-12T03:11:27.636Z,8.00
2022-11-12T03:14:12.971Z,8.30
2022-11-12T03:16:58.203Z,8.77
2022-11-12T03:19:43.582Z,7.90
2022-11-12T03:22:28.836Z,7.55
2022-11-12T03:25:14.088Z,6.82
2022-11-12T03:28:09.336Z,7.20
2022-11-12T03:30:59.009Z,7.00
2022-11-12T03:33:44.011Z,6.28
2022-11-12T03:36:29.211Z,7.10
2022-11-12T03:39:14.697Z,7.28
2022-11-12T03:41:59.838Z,6.97
2022-11-12T03:44:45.108Z,6.50
2022-11-12T03:47:30.034Z,6.57
2022-11-12T03:50:17.034Z,5.82
2022-11-12T03:53:02.085Z,7.00
2022-11-12T03:55:47.374Z,6.55
2022-11-12T03:58:32.623Z,6.82
2022-11-12T04:01:17.721Z,6.72
2022-11-12T04:04:03.000Z,6.63
2022-11-12T04:07:06.918Z,7.07
2022-11-12T04:09:52.044Z,6.63
2022-11-12T04:12:55.591Z,6.20
2022-11-12T04:15:40.973Z,6.63
2022-11-12T04:18:55.494Z,6.28
2022-11-12T04:21:56.454Z,6.88
2022-11-12T04:25:01.708Z,6.47
2022-11-12T04:27:47.091Z,6.32
2022-11-12T04:30:32.355Z,6.57
2022-11-12T04:33:17.415Z,7.22
2022-11-12T04:36:02.806Z,6.43
2022-11-12T04:38:47.973Z,6.82
2022-11-12T04:41:51.780Z,6.90
2022-11-12T04:44:55.592Z,6.35
2022-11-12T04:47:43.882Z,7.10
2022-11-12T04:50:29.196Z,6.20
2022-11-12T04:53:15.088Z,7.38
2022-11-12T04:55:59.971Z,6.88
2022-11-12T04:58:45.192Z,7.13
2022-11-12T05:01:30.465Z,7.18
2022-11-12T05:04:16.023Z,6.28
2022-11-12T05:07:01.506Z,5.78
2022-11-12T05:09:46.505Z,6.47
2022-11-12T05:12:31.720Z,6.38
2022-11-12T05:15:16.830Z,6.38
2022-11-12T05:18:02.184Z,6.53
2022-11-12T05:20:47.337Z,5.78
2022-11-12T05:23:32.531Z,5.95
2022-11-12T05:26:17.869Z,6.13
2022-11-12T05:29:08.465Z,5.35
2022-11-12T05:31:54.426Z,6.28
2022-11-12T05:34:39.485Z,5.75
2022-11-12T05:37:24.852Z,6.18
2022-11-12T05:40:10.384Z,6.55
2022-11-12T05:42:55.340Z,6.43
2022-11-12T05:45:43.565Z,6.03
2022-11-12T05:48:29.379Z,5.50
2022-11-12T05:51:14.860Z,5.50
2022-11-12T05:54:00.546Z,5.38
2022-11-12T05:56:45.929Z,5.80
2022-11-12T05:59:30.921Z,5.47
2022-11-12T06:02:16.213Z,5.45
2022-11-12T06:05:01.237Z,5.43
2022-11-12T06:07:46.471Z,5.25
2022-11-12T06:10:33.184Z,5.25
2022-11-12T06:13:18.770Z,5.93
2022-11-12T06:16:04.303Z,5.70
2022-11-12T06:18:49.506Z,5.40
2022-11-12T06:21:34.828Z,5.57
2022-11-12T06:24:20.546Z,6.45
2022-11-12T06:27:05.787Z,6.57
2022-11-12T06:29:51.312Z,7.03
2022-11-12T06:32:36.809Z,6.40
2022-11-12T06:35:21.655Z,7.00
2022-11-12T06:38:06.747Z,6.10
2022-11-12T06:40:51.981Z,6.05
2022-11-12T06:43:37.621Z,6.68
2022-11-12T06:46:23.075Z,6.18
2022-11-12T06:49:08.181Z,6.78
2022-11-12T06:51:53.605Z,6.25
2022-11-12T06:54:38.984Z,7.60
2022-11-12T06:57:24.271Z,7.00
2022-11-12T07:00:11.776Z,6.30
2022-11-12T07:02:56.784Z,6.40
2022-11-12T07:05:41.943Z,6.45
2022-11-12T07:08:27.422Z,6.60
2022-11-12T07:11:13.436Z,6.88
2022-11-12T07:13:58.759Z,7.05
2022-11-12T07:16:44.172Z,6.53
2022-11-12T07:19:29.540Z,6.32
2022-11-12T07:22:14.906Z,6.75
2022-11-12T07:25:00.254Z,6.68
2022-11-12T07:27:45.437Z,7.45
2022-11-12T07:30:30.725Z,7.38
2022-11-12T07:33:15.770Z,7.78
2022-11-12T07:36:03.925Z,8.38
2022-11-12T07:38:52.383Z,8.15
2022-11-12T07:41:37.247Z,9.45
2022-11-12T07:44:22.279Z,10.07
2022-11-12T07:47:07.682Z,10.35
2022-11-12T07:49:52.854Z,14.00
2022-11-12T07:52:38.236Z,14.43
2022-11-12T07:55:23.384Z,12.43
2022-11-12T07:58:08.718Z,11.23
2022-11-12T08:00:54.129Z,13.35
2022-11-12T08:03:39.049Z,13.75
2022-11-12T08:06:24.352Z,12.75
2022-11-12T08:09:10.172Z,11.48
2022-11-12T08:11:55.084Z,12.57
2022-11-12T08:14:48.199Z,13.25
2022-11-12T08:17:37.777Z,12.68
2022-11-12T08:20:23.204Z,12.20
2022-11-12T08:23:09.480Z,13.93
2022-11-12T08:26:01.109Z,11.50
2022-11-12T08:28:46.917Z,10.32
2022-11-12T08:31:32.287Z,10.20
2022-11-12T08:34:22.472Z,9.23
2022-11-12T08:37:08.219Z,9.02
2022-11-12T08:39:53.539Z,7.72
2022-11-12T08:42:39.099Z,9.35
2022-11-12T08:45:24.574Z,9.85
2022-11-12T08:48:14.425Z,11.10
2022-11-12T08:51:02.488Z,12.52
2022-11-12T08:53:47.970Z,9.93
2022-11-12T08:56:34.051Z,10.02
2022-11-12T08:59:18.967Z,9.13
2022-11-12T09:02:04.019Z,8.38
2022-11-12T09:04:49.315Z,9.35
2022-11-12T09:07:49.311Z,10.68
2022-11-12T09:10:36.473Z,12.38
2022-11-12T09:13:22.048Z,13.63
2022-11-12T09:16:09.051Z,16.27
2022-11-12T09:18:54.025Z,15.73
2022-11-12T09:21:39.736Z,16.00
2022-11-12T09:24:24.912Z,15.77
2022-11-12T09:27:10.315Z,17.58
2022-11-12T09:29:55.793Z,16.83
2022-11-12T09:32:41.207Z,17.67
2022-11-12T09:35:26.699Z,17.38
2022-11-12T09:38:12.238Z,15.88
2022-11-12T09:41:09.538Z,14.95
2022-11-12T09:44:01.228Z,15.30
2022-11-12T09:47:02.522Z,13.70
2022-11-12T09:50:22.770Z,10.77
2022-11-12T09:53:37.083Z,8.43
2022-11-12T09:56:26.144Z,7.78
2022-11-12T09:59:13.186Z,5.50
2022-11-12T10:02:16.942Z,5.57
2022-11-12T10:05:32.383Z,4.72
2022-11-12T10:08:20.197Z,4.38
2022-11-12T10:11:20.496Z,4.57
2022-11-12T10:14:34.570Z,4.80
2022-11-12T10:17:41.807Z,4.50
2022-11-12T10:20:38.764Z,3.53
2022-11-12T10:23:36.868Z,4.22
2022-11-12T10:26:24.705Z,4.90
2022-11-12T10:29:32.485Z,4.70
2022-11-12T10:32:17.732Z,4.38
2022-11-12T10:35:03.761Z,3.90
2022-11-12T10:38:19.859Z,4.18
2022-11-12T10:41:32.368Z,4.10
2022-11-12T10:44:26.218Z,4.22
2022-11-12T10:47:32.477Z,4.13
2022-11-12T10:50:21.973Z,4.45
2022-11-12T10:53:10.260Z,4.47
2022-11-12T10:56:04.013Z,5.03
2022-11-12T10:59:14.799Z,4.85
2022-11-12T11:02:01.261Z,4.25
2022-11-12T11:04:46.613Z,4.82
2022-11-12T11:07:31.796Z,4.72
2022-11-12T11:10:46.454Z,4.63
2022-11-12T11:13:31.695Z,5.07
2022-11-12T11:16:28.892Z,3.80
2022-11-12T11:19:13.983Z,4.40
2022-11-12T11:22:13.333Z,4.43
2022-11-12T11:28:14.203Z,4.00
2022-11-12T11:31:07.432Z,3.70
2022-11-12T11:34:15.967Z,4.93
2022-11-12T11:37:06.244Z,3.72
2022-11-12T11:39:55.903Z,3.70
2022-11-12T11:43:03.075Z,3.90
2022-11-12T11:46:00.240Z,4.05
2022-11-12T11:49:24.548Z,4.20
2022-11-12T11:52:18.671Z,4.30
2022-11-12T11:55:09.708Z,4.38
2022-11-12T11:58:40.050Z,4.35
2022-11-12T12:01:56.232Z,3.42
2022-11-12T12:05:05.783Z,3.75
2022-11-12T12:08:06.335Z,4.18
2022-11-12T12:11:12.076Z,4.05
2022-11-12T12:14:09.505Z,3.38
2022-11-12T12:17:26.647Z,3.08
2022-11-12T12:20:22.533Z,3.00
2022-11-12T12:23:30.574Z,3.22
2022-11-12T12:26:32.828Z,3.83
2022-11-12T12:29:42.009Z,3.30
2022-11-12T12:32:32.843Z,2.90
2022-11-12T12:35:31.466Z,3.13
2022-11-12T12:38:38.855Z,3.25
2022-11-12T12:41:32.796Z,3.33
2022-11-12T12:44:18.222Z,2.80
2022-11-12T12:47:04.019Z,2.50
2022-11-12T12:49:51.385Z,3.13
2022-11-12T12:53:05.512Z,3.15
2022-11-12T12:55:54.857Z,4.10
2022-11-12T13:01:32.146Z,3.70
2022-11-12T13:04:17.141Z,3.53
2022-11-12T13:07:05.304Z,3.67
2022-11-12T13:09:52.687Z,3.78
2022-11-12T13:13:15.520Z,2.60
2022-11-12T13:16:02.844Z,2.70
2022-11-12T13:18:50.755Z,2.63
2022-11-12T13:21:35.944Z,2.10
2022-11-12T13:25:04.710Z,2.47
2022-11-12T13:27:49.726Z,2.80
2022-11-12T13:30:35.126Z,2.97
2022-11-12T13:33:30.979Z,2.45
2022-11-12T13:36:27.862Z,2.20
2022-11-12T13:39:17.753Z,2.20
2022-11-12T13:42:31.486Z,2.17
2022-11-12T13:45:19.454Z,2.60
2022-11-12T13:48:15.154Z,1.90
2022-11-12T13:51:12.723Z,2.20
2022-11-12T13:53:58.431Z,2.22
2022-11-12T13:56:43.981Z,2.15
2022-11-12T13:59:29.297Z,2.20
2022-11-12T14:02:26.255Z,2.15
2022-11-12T14:05:17.867Z,2.28
2022-11-12T14:08:30.345Z,2.10
2022-11-12T14:11:36.816Z,2.45
2022-11-12T14:14:40.722Z,2.70
2022-11-12T14:17:52.105Z,2.25
2022-11-12T14:20:41.195Z,2.30
2022-11-12T14:23:26.718Z,2.17
2022-11-12T14:26:13.240Z,2.58
2022-11-12T14:28:59.250Z,2.00
2022-11-12T14:31:44.864Z,2.20
2022-11-12T14:34:33.059Z,2.38
2022-11-12T14:37:39.852Z,2.50
2022-11-12T14:40:29.460Z,2.45
2022-11-12T14:43:27.700Z,2.38
2022-11-12T14:46:29.088Z,2.60
2022-11-12T14:49:22.277Z,2.30
2022-11-12T14:52:13.610Z,2.50
2022-11-12T14:55:09.036Z,2.20
2022-11-12T14:57:58.700Z,2.45
2022-11-12T15:03:32.528Z,3.22
2022-11-12T15:06:29.550Z,4.78
2022-11-12T15:09:18.808Z,3.70
2022-11-12T15:15:08.550Z,3.33
2022-11-12T15:17:59.391Z,3.90
2022-11-12T15:20:45.229Z,3.45
2022-11-12T15:23:30.681Z,3.88
2022-11-12T15:26:33.657Z,3.10
2022-11-12T15:29:27.716Z,4.57
2022-11-12T15:32:14.146Z,5.25
2022-11-12T15:34:59.406Z,4.88
2022-11-12T15:37:44.779Z,4.57
2022-11-12T15:40:32.299Z,3.72
2022-11-12T15:43:21.417Z,4.15
2022-11-12T15:46:17.605Z,3.92
2022-11-12T15:49:02.657Z,4.00
2022-11-12T15:51:48.155Z,4.03
2022-11-12T15:54:36.872Z,4.65
2022-11-12T15:57:29.232Z,4.45
2022-11-12T16:00:19.866Z,5.20
2022-11-12T16:03:13.798Z,6.18
2022-11-12T16:06:02.653Z,5.97
2022-11-12T16:08:52.469Z,5.65
2022-11-12T16:11:37.876Z,5.80
2022-11-12T16:14:25.035Z,5.88
2022-11-12T16:17:16.233Z,6.13
2022-11-12T16:20:01.612Z,7.10
2022-11-12T16:22:47.979Z,6.78
2022-11-12T16:25:36.177Z,7.15
2022-11-12T16:28:21.114Z,6.82
2022-11-12T16:31:06.754Z,7.70
2022-11-12T16:33:52.384Z,8.43
2022-11-12T16:36:39.755Z,8.60
2022-11-12T16:39:25.315Z,9.48
2022-11-12T16:42:10.912Z,11.57
2022-11-12T16:44:55.799Z,12.02
2022-11-12T16:47:47.723Z,13.43
2022-11-12T16:50:33.188Z,13.80
2022-11-12T16:53:18.569Z,12.07
2022-11-12T16:56:04.081Z,9.68
2022-11-12T16:58:49.789Z,10.27
2022-11-12T17:01:35.141Z,9.50
2022-11-12T17:04:20.503Z,8.40
2022-11-12T17:07:05.926Z,8.48
2022-11-12T17:09:52.836Z,7.70
2022-11-12T17:12:38.011Z,7.68
2022-11-12T17:15:23.333Z,8.85
2022-11-12T17:18:09.673Z,8.35
2022-11-12T17:20:55.285Z,9.85
2022-11-12T17:23:42.261Z,9.55
2022-11-12T17:26:29.008Z,10.25
2022-11-12T17:29:14.213Z,10.35
2022-11-12T17:31:59.593Z,11.02
2022-11-12T17:34:44.766Z,12.25
2022-11-12T17:37:29.807Z,14.68
2022-11-12T17:40:15.602Z,17.70
2022-11-12T17:43:00.861Z,17.92
2022-11-12T17:45:53.664Z,18.25
2022-11-12T17:48:39.321Z,14.18
2022-11-12T17:51:26.776Z,14.60
2022-11-12T17:54:12.554Z,13.32
2022-11-12T17:56:58.042Z,13.55
2022-11-12T17:59:43.048Z,12.70
2022-11-12T18:02:28.308Z,12.10
2022-11-12T18:05:13.561Z,11.70
2022-11-12T18:07:59.066Z,12.73
2022-11-12T18:10:45.547Z,11.70
2022-11-12T18:13:31.088Z,11.82
2022-11-12T18:16:20.649Z,14.73
2022-11-12T18:19:05.963Z,11.57
2022-11-12T18:21:52.851Z,12.75
2022-11-12T18:24:37.953Z,13.48
2022-11-12T18:27:23.213Z,14.73
2022-11-12T18:30:08.944Z,14.82
2022-11-12T18:32:54.107Z,15.75
2022-11-12T18:35:39.353Z,16.20
2022-11-12T18:38:24.653Z,16.35
2022-11-12T18:41:12.139Z,17.27
2022-11-12T18:43:57.659Z,18.70
2022-11-12T18:46:43.252Z,18.58
2022-11-12T18:49:28.388Z,18.35
2022-11-12T18:52:13.855Z,19.45
2022-11-12T18:54:59.111Z,20.65
2022-11-12T18:57:44.453Z,20.92
2022-11-12T19:00:29.721Z,21.73
2022-11-12T19:03:14.936Z,22.65
2022-11-12T19:06:01.771Z,23.67
2022-11-12T19:08:47.842Z,24.55
2022-11-12T19:11:33.383Z,26.23
2022-11-12T19:14:18.759Z,23.27
2022-11-12T19:17:04.104Z,23.60
2022-11-12T19:19:49.572Z,21.33
2022-11-12T19:22:35.229Z,21.02
2022-11-12T19:25:20.686Z,20.45
2022-11-12T19:28:05.929Z,19.52
2022-11-12T19:30:54.814Z,17.90
2022-11-12T19:33:40.232Z,15.13
2022-11-12T19:36:26.267Z,13.95
2022-11-12T19:39:11.600Z,13.48
2022-11-12T19:41:57.128Z,12.23
2022-11-12T19:44:42.379Z,11.02
2022-11-12T19:47:27.662Z,12.30
2022-11-12T19:50:12.610Z,13.18
2022-11-12T19:52:58.059Z,13.70
2022-11-12T19:55:44.200Z,13.60
2022-11-12T19:58:31.780Z,14.50
2022-11-12T20:01:18.907Z,19.00
2022-11-12T20:04:04.490Z,16.65
2022-11-12T20:06:49.783Z,16.77
2022-11-12T20:09:35.018Z,16.13
2022-11-12T20:12:20.246Z,18.73
2022-11-12T20:15:06.378Z,20.10
2022-11-12T20:17:51.635Z,19.05
2022-11-12T20:20:37.079Z,19.92
2022-11-12T20:23:27.027Z,18.38
2022-11-12T20:26:15.001Z,17.52
2022-11-12T20:29:00.187Z,17.42
2022-11-12T20:31:45.765Z,17.48
2022-11-12T20:34:30.998Z,18.27
2022-11-12T20:37:16.408Z,15.95
2022-11-12T20:40:02.278Z,15.77
2022-11-12T20:42:47.666Z,16.45
2022-11-12T20:45:33.753Z,14.65
2022-11-12T20:48:20.214Z,14.82
2022-11-12T20:51:23.331Z,14.70
2022-11-12T20:54:10.603Z,15.02
2022-11-12T20:56:56.151Z,14.05
2022-11-12T20:59:41.244Z,14.57
2022-11-12T21:02:26.593Z,14.50
2022-11-12T21:05:12.354Z,14.57
2022-11-12T21:07:57.453Z,13.65
2022-11-12T21:10:42.941Z,16.40
2022-11-12T21:13:28.374Z,14.25
2022-11-12T21:16:14.604Z,15.10
2022-11-12T21:19:01.489Z,14.73
2022-11-12T21:21:46.598Z,14.57
2022-11-12T21:24:31.931Z,14.38
2022-11-12T21:27:17.135Z,15.48
2022-11-12T21:30:02.530Z,15.85
2022-11-12T21:32:48.903Z,15.88
2022-11-12T21:35:34.264Z,17.00
2022-11-12T21:38:19.311Z,15.93
2022-11-12T21:41:10.410Z,16.88
2022-11-12T21:43:55.623Z,17.45
2022-11-12T21:46:40.752Z,16.58
2022-11-12T21:49:26.083Z,18.08
2022-11-12T21:52:12.849Z,20.27
2022-11-12T21:54:57.872Z,20.73
2022-11-12T21:57:43.207Z,25.45
2022-11-12T22:00:41.715Z,26.58
2022-11-12T22:03:30.910Z,22.15
2022-11-12T22:06:17.224Z,15.25
2022-11-12T22:09:03.105Z,15.00
2022-11-12T22:11:48.423Z,12.95
2022-11-12T22:14:33.730Z,13.95
2022-11-12T22:17:18.930Z,12.88
2022-11-12T22:20:05.080Z,12.05
2022-11-12T22:22:51.670Z,11.15
2022-11-12T22:25:36.636Z,10.88
2022-11-12T22:28:22.128Z,11.30
2022-11-12T22:31:13.195Z,10.07
2022-11-12T22:34:00.319Z,10.85
2022-11-12T22:36:45.691Z,11.02
2022-11-12T22:39:31.074Z,10.20
2022-11-12T22:42:16.321Z,10.77
2022-11-12T22:45:01.640Z,10.43
2022-11-12T22:47:46.840Z,9.50
2022-11-12T22:50:32.251Z,9.73
2022-11-12T22:53:17.637Z,11.02
2022-11-12T22:56:05.102Z,14.80
2022-11-12T22:58:51.316Z,13.82
2022-11-12T23:01:36.573Z,13.45
2022-11-12T23:04:21.993Z,20.38
2022-11-12T23:07:07.563Z,18.58
2022-11-12T23:09:52.683Z,14.75
2022-11-12T23:12:38.036Z,12.80
2022-11-12T23:15:22.899Z,12.23
2022-11-12T23:18:08.335Z,12.73
2022-11-12T23:20:53.645Z,10.98
2022-11-12T23:23:38.986Z,10.90
2022-11-12T23:26:26.116Z,10.98
2022-11-12T23:29:11.981Z,10.52
2022-11-12T23:31:57.283Z,10.15
2022-11-12T23:34:42.656Z,10.70
2022-11-12T23:37:27.832Z,10.32
2022-11-12T23:40:13.345Z,8.95
2022-11-12T23:42:58.444Z,10.50
2022-11-12T23:45:43.671Z,13.82
2022-11-12T23:48:29.414Z,17.33
2022-11-12T23:51:20.126Z,17.05
2022-11-12T23:54:05.607Z,19.35
2022-11-12T23:56:50.924Z,17.40
2022-11-12T23:59:36.183Z,21.20
